sensor_id;sensor_type;location;lat;lon;timestamp;P1;durP1;ratioP1;P2;durP2;ratioP2
16179;SDS011;8196;49.428;10.906;2022-12-07T00:00:54;7.93;;;7.00;;
16179;SDS011;8196;49.428;10.906;2022-12-07T00:03:21;9.40;;;7.88;;
16179;SDS011;8196;49.428;10.906;2022-12-07T00:05:48;8.82;;;7.35;;
16179;SDS011;8196;49.428;10.906;2022-12-07T00:08:15;8.13;;;7.32;;
16179;SDS011;8196;49.428;10.906;2022-12-07T00:10:42;10.23;;;8.30;;
16179;SDS011;8196;49.428;10.906;2022-12-07T00:13:09;9.48;;;7.82;;
16179;SDS011;8196;49.428;10.906;2022-12-07T00:15:36;9.02;;;7.55;;
16179;SDS011;8196;49.428;10.906;2022-12-07T00:18:04;9.65;;;8.00;;
16179;SDS011;8196;49.428;10.906;2022-12-07T00:20:31;8.82;;;7.70;;
16179;SDS011;8196;49.428;10.906;2022-12-07T00:22:59;9.13;;;7.63;;
16179;SDS011;8196;49.428;10.906;2022-12-07T00:25:26;9.02;;;7.93;;
16179;SDS011;8196;49.428;10.906;2022-12-07T00:27:53;8.60;;;7.70;;
16179;SDS011;8196;49.428;10.906;2022-12-07T00:30:23;9.15;;;7.95;;
16179;SDS011;8196;49.428;10.906;2022-12-07T00:32:50;10.05;;;8.52;;
16179;SDS011;8196;49.428;10.906;2022-12-07T00:35:17;9.18;;;8.18;;
16179;SDS011;8196;49.428;10.906;2022-12-07T00:37:44;8.60;;;7.70;;
16179;SDS011;8196;49.428;10.906;2022-12-07T00:40:11;9.10;;;8.00;;
16179;SDS011;8196;49.428;10.906;2022-12-07T00:42:38;8.43;;;7.47;;
16179;SDS011;8196;49.428;10.906;2022-12-07T00:45:05;9.45;;;8.05;;
16179;SDS011;8196;49.428;10.906;2022-12-07T00:47:33;9.23;;;7.45;;
16179;SDS011;8196;49.428;10.906;2022-12-07T00:50:00;8.98;;;7.85;;
16179;SDS011;8196;49.428;10.906;2022-12-07T00:52:27;9.18;;;8.02;;
16179;SDS011;8196;49.428;10.906;2022-12-07T00:54:54;9.90;;;8.23;;
16179;SDS011;8196;49.428;10.906;2022-12-07T00:57:21;9.63;;;7.40;;
16179;SDS011;8196;49.428;10.906;2022-12-07T00:59:48;9.33;;;8.40;;
16179;SDS011;8196;49.428;10.906;2022-12-07T01:02:15;9.77;;;8.20;;
16179;SDS011;8196;49.428;10.906;2022-12-07T01:04:43;9.05;;;8.05;;
16179;SDS011;8196;49.428;10.906;2022-12-07T01:07:10;8.63;;;7.55;;
16179;SDS011;8196;49.428;10.906;2022-12-07T01:09:37;9.77;;;7.90;;
16179;SDS011;8196;49.428;10.906;2022-12-07T01:12:04;9.13;;;8.05;;
16179;SDS011;8196;49.428;10.906;2022-12-07T01:14:31;11.10;;;9.23;;
16179;SDS011;8196;49.428;10.906;2022-12-07T01:16:58;11.35;;;8.93;;
16179;SDS011;8196;49.428;10.906;2022-12-07T01:19:25;10.70;;;8.80;;
16179;SDS011;8196;49.428;10.906;2022-12-07T01:21:52;11.40;;;9.05;;
16179;SDS011;8196;49.428;10.906;2022-12-07T01:24:19;11.43;;;9.23;;
16179;SDS011;8196;49.428;10.906;2022-12-07T01:26:49;11.25;;;9.25;;
16179;SDS011;8196;49.428;10.906;2022-12-07T01:29:16;11.25;;;9.18;;
16179;SDS011;8196;49.428;10.906;2022-12-07T01:31:44;12.65;;;9.75;;
16179;SDS011;8196;49.428;10.906;2022-12-07T01:34:11;10.73;;;8.90;;
16179;SDS011;8196;49.428;10.906;2022-12-07T01:36:38;10.77;;;8.63;;
16179;SDS011;8196;49.428;10.906;2022-12-07T01:39:06;10.77;;;9.20;;
16179;SDS011;8196;49.428;10.906;2022-12-07T01:41:35;11.38;;;9.60;;
16179;SDS011;8196;49.428;10.906;2022-12-07T01:46:32;13.70;;;10.47;;
16179;SDS011;8196;49.428;10.906;2022-12-07T01:48:59;12.23;;;9.80;;
16179;SDS011;8196;49.428;10.906;2022-12-07T01:51:26;11.00;;;8.95;;
16179;SDS011;8196;49.428;10.906;2022-12-07T01:53:54;12.00;;;9.65;;
16179;SDS011;8196;49.428;10.906;2022-12-07T01:56:22;11.18;;;9.25;;
16179;SDS011;8196;49.428;10.906;2022-12-07T01:58:50;11.27;;;9.02;;
16179;SDS011;8196;49.428;10.906;2022-12-07T02:01:17;10.48;;;9.00;;
16179;SDS011;8196;49.428;10.906;2022-12-07T02:03:45;10.73;;;8.80;;
16179;SDS011;8196;49.428;10.906;2022-12-07T02:06:13;11.00;;;9.30;;
16179;SDS011;8196;49.428;10.906;2022-12-07T02:08:43;10.32;;;8.77;;
16179;SDS011;8196;49.428;10.906;2022-12-07T02:11:10;10.85;;;9.00;;
16179;SDS011;8196;49.428;10.906;2022-12-07T02:13:38;11.50;;;9.80;;
16179;SDS011;8196;49.428;10.906;2022-12-07T02:24:10;12.45;;;10.15;;
16179;SDS011;8196;49.428;10.906;2022-12-07T02:29:37;12.30;;;9.57;;
16179;SDS011;8196;49.428;10.906;2022-12-07T02:34:58;12.45;;;9.48;;
16179;SDS011;8196;49.428;10.906;2022-12-07T02:39:56;13.65;;;9.93;;
16179;SDS011;8196;49.428;10.906;2022-12-07T02:42:33;12.77;;;10.20;;
16179;SDS011;8196;49.428;10.906;2022-12-07T02:45:03;11.80;;;10.27;;
16179;SDS011;8196;49.428;10.906;2022-12-07T02:47:31;13.00;;;10.15;;
16179;SDS011;8196;49.428;10.906;2022-12-07T02:50:01;12.52;;;10.48;;
16179;SDS011;8196;49.428;10.906;2022-12-07T02:52:29;13.80;;;10.90;;
16179;SDS011;8196;49.428;10.906;2022-12-07T02:54:56;13.63;;;9.93;;
16179;SDS011;8196;49.428;10.906;2022-12-07T02:57:27;11.27;;;9.45;;
16179;SDS011;8196;49.428;10.906;2022-12-07T03:00:04;11.88;;;9.15;;
16179;SDS011;8196;49.428;10.906;2022-12-07T03:05:08;12.35;;;9.05;;
16179;SDS011;8196;49.428;10.906;2022-12-07T03:07:46;13.30;;;9.98;;
16179;SDS011;8196;49.428;10.906;2022-12-07T03:15:13;12.80;;;9.27;;
16179;SDS011;8196;49.428;10.906;2022-12-07T03:17:41;14.10;;;10.23;;
16179;SDS011;8196;49.428;10.906;2022-12-07T03:20:10;16.40;;;11.13;;
16179;SDS011;8196;49.428;10.906;2022-12-07T03:22:38;14.15;;;10.88;;
16179;SDS011;8196;49.428;10.906;2022-12-07T03:25:09;15.07;;;10.80;;
16179;SDS011;8196;49.428;10.906;2022-12-07T03:27:41;12.35;;;9.10;;
16179;SDS011;8196;49.428;10.906;2022-12-07T03:30:10;13.23;;;9.32;;
16179;SDS011;8196;49.428;10.906;2022-12-07T03:35:27;13.07;;;9.15;;
16179;SDS011;8196;49.428;10.906;2022-12-07T03:37:57;13.00;;;9.68;;
16179;SDS011;8196;49.428;10.906;2022-12-07T03:42:55;16.23;;;10.85;;
16179;SDS011;8196;49.428;10.906;2022-12-07T03:45:28;17.17;;;12.00;;
16179;SDS011;8196;49.428;10.906;2022-12-07T03:48:17;14.65;;;10.63;;
16179;SDS011;8196;49.428;10.906;2022-12-07T03:50:48;14.45;;;10.07;;
16179;SDS011;8196;49.428;10.906;2022-12-07T03:53:18;12.82;;;9.90;;
16179;SDS011;8196;49.428;10.906;2022-12-07T03:55:46;12.07;;;9.45;;
16179;SDS011;8196;49.428;10.906;2022-12-07T03:58:15;20.17;;;13.27;;
16179;SDS011;8196;49.428;10.906;2022-12-07T04:00:43;19.13;;;12.80;;
16179;SDS011;8196;49.428;10.906;2022-12-07T04:03:10;14.88;;;10.38;;
16179;SDS011;8196;49.428;10.906;2022-12-07T04:05:38;15.40;;;10.38;;
16179;SDS011;8196;49.428;10.906;2022-12-07T04:08:05;16.15;;;10.25;;
16179;SDS011;8196;49.428;10.906;2022-12-07T04:10:33;13.10;;;9.43;;
16179;SDS011;8196;49.428;10.906;2022-12-07T04:13:00;14.95;;;9.52;;
16179;SDS011;8196;49.428;10.906;2022-12-07T04:15:27;13.60;;;9.82;;
16179;SDS011;8196;49.428;10.906;2022-12-07T04:17:54;13.35;;;9.93;;
16179;SDS011;8196;49.428;10.906;2022-12-07T04:20:21;16.63;;;11.40;;
16179;SDS011;8196;49.428;10.906;2022-12-07T04:22:49;12.80;;;9.68;;
16179;SDS011;8196;49.428;10.906;2022-12-07T04:25:16;17.00;;;12.15;;
16179;SDS011;8196;49.428;10.906;2022-12-07T04:27:43;16.17;;;10.80;;
16179;SDS011;8196;49.428;10.906;2022-12-07T04:30:10;16.65;;;11.90;;
16179;SDS011;8196;49.428;10.906;2022-12-07T04:32:37;16.38;;;11.50;;
16179;SDS011;8196;49.428;10.906;2022-12-07T04:35:04;15.30;;;11.20;;
16179;SDS011;8196;49.428;10.906;2022-12-07T04:37:32;13.98;;;10.48;;
16179;SDS011;8196;49.428;10.906;2022-12-07T04:39:59;14.02;;;10.23;;
16179;SDS011;8196;49.428;10.906;2022-12-07T04:42:27;17.40;;;11.57;;
16179;SDS011;8196;49.428;10.906;2022-12-07T04:44:54;16.67;;;11.97;;
16179;SDS011;8196;49.428;10.906;2022-12-07T04:47:21;16.23;;;11.63;;
16179;SDS011;8196;49.428;10.906;2022-12-07T04:49:48;16.03;;;12.37;;
16179;SDS011;8196;49.428;10.906;2022-12-07T04:52:15;16.70;;;12.13;;
16179;SDS011;8196;49.428;10.906;2022-12-07T04:54:42;16.20;;;11.88;;
16179;SDS011;8196;49.428;10.906;2022-12-07T04:57:09;17.55;;;12.55;;
16179;SDS011;8196;49.428;10.906;2022-12-07T04:59:36;16.50;;;12.15;;
16179;SDS011;8196;49.428;10.906;2022-12-07T05:02:10;18.45;;;12.25;;
16179;SDS011;8196;49.428;10.906;2022-12-07T05:04:37;17.40;;;12.43;;
16179;SDS011;8196;49.428;10.906;2022-12-07T05:07:04;15.48;;;11.75;;
16179;SDS011;8196;49.428;10.906;2022-12-07T05:09:31;16.10;;;12.15;;
16179;SDS011;8196;49.428;10.906;2022-12-07T05:11:58;18.23;;;12.75;;
16179;SDS011;8196;49.428;10.906;2022-12-07T05:14:26;18.65;;;12.70;;
16179;SDS011;8196;49.428;10.906;2022-12-07T05:16:53;17.48;;;12.82;;
16179;SDS011;8196;49.428;10.906;2022-12-07T05:19:20;18.65;;;12.48;;
16179;SDS011;8196;49.428;10.906;2022-12-07T05:21:47;20.45;;;13.95;;
16179;SDS011;8196;49.428;10.906;2022-12-07T05:24:15;21.67;;;14.85;;
16179;SDS011;8196;49.428;10.906;2022-12-07T05:26:43;23.48;;;16.23;;
16179;SDS011;8196;49.428;10.906;2022-12-07T05:29:11;20.95;;;15.15;;
16179;SDS011;8196;49.428;10.906;2022-12-07T05:31:39;22.77;;;15.77;;
16179;SDS011;8196;49.428;10.906;2022-12-07T05:34:06;20.77;;;15.10;;
16179;SDS011;8196;49.428;10.906;2022-12-07T05:36:33;19.65;;;14.45;;
16179;SDS011;8196;49.428;10.906;2022-12-07T05:39:00;19.95;;;14.38;;
16179;SDS011;8196;49.428;10.906;2022-12-07T05:41:28;19.52;;;13.90;;
16179;SDS011;8196;49.428;10.906;2022-12-07T05:44:15;22.20;;;15.20;;
16179;SDS011;8196;49.428;10.906;2022-12-07T05:46:42;23.00;;;15.60;;
16179;SDS011;8196;49.428;10.906;2022-12-07T05:49:09;22.63;;;16.10;;
16179;SDS011;8196;49.428;10.906;2022-12-07T05:51:36;23.40;;;16.38;;
16179;SDS011;8196;49.428;10.906;2022-12-07T05:54:03;24.63;;;16.55;;
16179;SDS011;8196;49.428;10.906;2022-12-07T05:56:30;24.27;;;15.73;;
16179;SDS011;8196;49.428;10.906;2022-12-07T06:01:44;24.63;;;17.03;;
16179;SDS011;8196;49.428;10.906;2022-12-07T06:04:11;23.55;;;16.45;;
16179;SDS011;8196;49.428;10.906;2022-12-07T06:06:38;24.50;;;16.38;;
16179;SDS011;8196;49.428;10.906;2022-12-07T06:09:06;24.15;;;16.58;;
16179;SDS011;8196;49.428;10.906;2022-12-07T06:11:33;21.92;;;15.73;;
16179;SDS011;8196;49.428;10.906;2022-12-07T06:14:20;23.45;;;15.88;;
16179;SDS011;8196;49.428;10.906;2022-12-07T06:16:47;22.85;;;15.85;;
16179;SDS011;8196;49.428;10.906;2022-12-07T06:19:14;21.88;;;15.48;;
16179;SDS011;8196;49.428;10.906;2022-12-07T06:21:42;21.58;;;15.52;;
16179;SDS011;8196;49.428;10.906;2022-12-07T06:24:11;22.27;;;15.23;;
16179;SDS011;8196;49.428;10.906;2022-12-07T06:26:38;22.27;;;15.15;;
16179;SDS011;8196;49.428;10.906;2022-12-07T06:29:06;22.05;;;15.45;;
16179;SDS011;8196;49.428;10.906;2022-12-07T06:31:33;25.15;;;16.50;;
16179;SDS011;8196;49.428;10.906;2022-12-07T06:34:02;24.88;;;16.90;;
16179;SDS011;8196;49.428;10.906;2022-12-07T06:36:30;24.88;;;16.25;;
16179;SDS011;8196;49.428;10.906;2022-12-07T06:38:57;24.42;;;16.25;;
16179;SDS011;8196;49.428;10.906;2022-12-07T06:41:24;26.38;;;16.90;;
16179;SDS011;8196;49.428;10.906;2022-12-07T06:43:51;26.90;;;16.77;;
16179;SDS011;8196;49.428;10.906;2022-12-07T06:46:21;23.90;;;15.82;;
16179;SDS011;8196;49.428;10.906;2022-12-07T06:48:49;23.52;;;16.70;;
16179;SDS011;8196;49.428;10.906;2022-12-07T06:51:16;23.88;;;16.05;;
16179;SDS011;8196;49.428;10.906;2022-12-07T06:53:43;25.25;;;15.98;;
16179;SDS011;8196;49.428;10.906;2022-12-07T06:56:10;23.02;;;15.55;;
16179;SDS011;8196;49.428;10.906;2022-12-07T06:58:38;23.52;;;15.85;;
16179;SDS011;8196;49.428;10.906;2022-12-07T07:01:09;23.27;;;16.30;;
16179;SDS011;8196;49.428;10.906;2022-12-07T07:03:37;25.40;;;16.95;;
16179;SDS011;8196;49.428;10.906;2022-12-07T07:06:04;23.03;;;15.53;;
16179;SDS011;8196;49.428;10.906;2022-12-07T07:08:32;22.60;;;15.95;;
16179;SDS011;8196;49.428;10.906;2022-12-07T07:10:59;23.33;;;16.23;;
16179;SDS011;8196;49.428;10.906;2022-12-07T07:13:27;23.77;;;16.50;;
16179;SDS011;8196;49.428;10.906;2022-12-07T07:15:54;23.75;;;16.23;;
16179;SDS011;8196;49.428;10.906;2022-12-07T07:18:21;24.92;;;17.08;;
16179;SDS011;8196;49.428;10.906;2022-12-07T07:20:49;24.08;;;16.10;;
16179;SDS011;8196;49.428;10.906;2022-12-07T07:23:17;24.10;;;17.13;;
16179;SDS011;8196;49.428;10.906;2022-12-07T07:25:44;22.98;;;15.70;;
16179;SDS011;8196;49.428;10.906;2022-12-07T07:28:12;24.05;;;16.70;;
16179;SDS011;8196;49.428;10.906;2022-12-07T07:30:39;24.40;;;16.40;;
16179;SDS011;8196;49.428;10.906;2022-12-07T07:33:06;22.25;;;15.90;;
16179;SDS011;8196;49.428;10.906;2022-12-07T07:35:34;24.63;;;16.38;;
16179;SDS011;8196;49.428;10.906;2022-12-07T07:38:01;23.13;;;16.45;;
16179;SDS011;8196;49.428;10.906;2022-12-07T07:40:28;24.30;;;16.65;;
16179;SDS011;8196;49.428;10.906;2022-12-07T07:42:55;23.52;;;15.75;;
16179;SDS011;8196;49.428;10.906;2022-12-07T07:45:23;23.75;;;16.83;;
16179;SDS011;8196;49.428;10.906;2022-12-07T07:47:50;22.85;;;16.02;;
16179;SDS011;8196;49.428;10.906;2022-12-07T07:50:18;21.75;;;15.95;;
16179;SDS011;8196;49.428;10.906;2022-12-07T07:52:45;23.75;;;16.67;;
16179;SDS011;8196;49.428;10.906;2022-12-07T07:55:12;21.85;;;16.67;;
16179;SDS011;8196;49.428;10.906;2022-12-07T07:57:40;24.55;;;16.20;;
16179;SDS011;8196;49.428;10.906;2022-12-07T08:00:09;23.35;;;16.60;;
16179;SDS011;8196;49.428;10.906;2022-12-07T08:02:37;24.60;;;17.08;;
16179;SDS011;8196;49.428;10.906;2022-12-07T08:05:04;23.15;;;16.50;;
16179;SDS011;8196;49.428;10.906;2022-12-07T08:07:31;23.83;;;16.57;;
16179;SDS011;8196;49.428;10.906;2022-12-07T08:09:58;24.40;;;16.77;;
16179;SDS011;8196;49.428;10.906;2022-12-07T08:12:26;22.45;;;16.08;;
16179;SDS011;8196;49.428;10.906;2022-12-07T08:14:53;23.25;;;17.15;;
16179;SDS011;8196;49.428;10.906;2022-12-07T08:17:20;24.38;;;16.73;;
16179;SDS011;8196;49.428;10.906;2022-12-07T08:19:47;24.35;;;16.70;;
16179;SDS011;8196;49.428;10.906;2022-12-07T08:22:14;24.15;;;16.60;;
16179;SDS011;8196;49.428;10.906;2022-12-07T08:24:41;22.50;;;15.88;;
16179;SDS011;8196;49.428;10.906;2022-12-07T08:27:08;23.80;;;16.33;;
16179;SDS011;8196;49.428;10.906;2022-12-07T08:29:35;23.40;;;15.75;;
16179;SDS011;8196;49.428;10.906;2022-12-07T08:32:03;22.33;;;16.13;;
16179;SDS011;8196;49.428;10.906;2022-12-07T08:34:34;23.90;;;15.70;;
16179;SDS011;8196;49.428;10.906;2022-12-07T08:37:02;20.52;;;15.20;;
16179;SDS011;8196;49.428;10.906;2022-12-07T08:39:30;19.75;;;14.55;;
16179;SDS011;8196;49.428;10.906;2022-12-07T08:41:58;20.15;;;14.52;;
16179;SDS011;8196;49.428;10.906;2022-12-07T08:44:25;19.80;;;14.57;;
16179;SDS011;8196;49.428;10.906;2022-12-07T08:46:53;19.17;;;13.95;;
16179;SDS011;8196;49.428;10.906;2022-12-07T08:49:24;19.30;;;13.85;;
16179;SDS011;8196;49.428;10.906;2022-12-07T08:51:54;17.85;;;13.35;;
16179;SDS011;8196;49.428;10.906;2022-12-07T08:54:22;19.98;;;13.55;;
16179;SDS011;8196;49.428;10.906;2022-12-07T08:56:49;18.57;;;13.47;;
16179;SDS011;8196;49.428;10.906;2022-12-07T08:59:24;17.52;;;13.82;;
16179;SDS011;8196;49.428;10.906;2022-12-07T09:01:51;17.30;;;12.70;;
16179;SDS011;8196;49.428;10.906;2022-12-07T09:04:18;17.35;;;12.63;;
16179;SDS011;8196;49.428;10.906;2022-12-07T09:06:46;16.15;;;12.35;;
16179;SDS011;8196;49.428;10.906;2022-12-07T09:09:14;17.83;;;13.90;;
16179;SDS011;8196;49.428;10.906;2022-12-07T09:11:41;17.13;;;12.38;;
16179;SDS011;8196;49.428;10.906;2022-12-07T09:14:08;15.27;;;11.70;;
16179;SDS011;8196;49.428;10.906;2022-12-07T09:16:35;15.77;;;11.90;;
16179;SDS011;8196;49.428;10.906;2022-12-07T09:19:02;15.95;;;11.90;;
16179;SDS011;8196;49.428;10.906;2022-12-07T09:21:30;13.80;;;10.73;;
16179;SDS011;8196;49.428;10.906;2022-12-07T09:23:57;14.07;;;10.88;;
16179;SDS011;8196;49.428;10.906;2022-12-07T09:26:24;15.52;;;11.38;;
16179;SDS011;8196;49.428;10.906;2022-12-07T09:28:52;15.18;;;10.63;;
16179;SDS011;8196;49.428;10.906;2022-12-07T09:31:19;14.02;;;10.52;;
16179;SDS011;8196;49.428;10.906;2022-12-07T09:33:54;13.90;;;11.05;;
16179;SDS011;8196;49.428;10.906;2022-12-07T09:36:21;14.25;;;10.80;;
16179;SDS011;8196;49.428;10.906;2022-12-07T09:38:48;13.82;;;11.00;;
16179;SDS011;8196;49.428;10.906;2022-12-07T09:41:15;15.82;;;11.57;;
16179;SDS011;8196;49.428;10.906;2022-12-07T09:43:42;15.00;;;10.82;;
16179;SDS011;8196;49.428;10.906;2022-12-07T09:46:13;14.02;;;10.35;;
16179;SDS011;8196;49.428;10.906;2022-12-07T09:48:43;14.43;;;11.13;;
16179;SDS011;8196;49.428;10.906;2022-12-07T09:53:49;14.10;;;10.85;;
16179;SDS011;8196;49.428;10.906;2022-12-07T09:56:17;15.25;;;10.60;;
16179;SDS011;8196;49.428;10.906;2022-12-07T09:58:45;13.63;;;10.90;;
16179;SDS011;8196;49.428;10.906;2022-12-07T10:01:13;13.93;;;10.73;;
16179;SDS011;8196;49.428;10.906;2022-12-07T10:03:44;14.60;;;11.02;;
16179;SDS011;8196;49.428;10.906;2022-12-07T10:06:12;12.40;;;10.10;;
16179;SDS011;8196;49.428;10.906;2022-12-07T10:08:39;13.10;;;10.17;;
16179;SDS011;8196;49.428;10.906;2022-12-07T10:11:10;13.68;;;10.60;;
16179;SDS011;8196;49.428;10.906;2022-12-07T10:13:38;11.77;;;9.63;;
16179;SDS011;8196;49.428;10.906;2022-12-07T10:16:07;13.02;;;9.80;;
16179;SDS011;8196;49.428;10.906;2022-12-07T10:18:54;11.77;;;9.95;;
16179;SDS011;8196;49.428;10.906;2022-12-07T10:21:22;12.98;;;10.23;;
16179;SDS011;8196;49.428;10.906;2022-12-07T10:24:12;12.73;;;9.82;;
16179;SDS011;8196;49.428;10.906;2022-12-07T10:26:38;12.43;;;10.15;;
16179;SDS011;8196;49.428;10.906;2022-12-07T10:34:35;12.98;;;10.30;;
16179;SDS011;8196;49.428;10.906;2022-12-07T10:39:51;11.55;;;9.98;;
16179;SDS011;8196;49.428;10.906;2022-12-07T10:44:48;11.93;;;9.82;;
16179;SDS011;8196;49.428;10.906;2022-12-07T10:47:20;10.57;;;8.85;;
16179;SDS011;8196;49.428;10.906;2022-12-07T10:57:54;11.45;;;9.90;;
16179;SDS011;8196;49.428;10.906;2022-12-07T11:00:23;12.25;;;10.32;;
16179;SDS011;8196;49.428;10.906;2022-12-07T11:03:12;12.00;;;9.95;;
16179;SDS011;8196;49.428;10.906;2022-12-07T11:10:55;13.93;;;10.90;;
16179;SDS011;8196;49.428;10.906;2022-12-07T11:13:28;13.05;;;10.38;;
16179;SDS011;8196;49.428;10.906;2022-12-07T11:26:25;11.77;;;9.60;;
16179;SDS011;8196;49.428;10.906;2022-12-07T11:34:32;10.82;;;8.93;;
16179;SDS011;8196;49.428;10.906;2022-12-07T11:37:03;11.10;;;9.88;;
16179;SDS011;8196;49.428;10.906;2022-12-07T11:39:36;12.35;;;9.80;;
16179;SDS011;8196;49.428;10.906;2022-12-07T11:42:09;10.50;;;9.10;;
16179;SDS011;8196;49.428;10.906;2022-12-07T11:47:16;11.23;;;9.20;;
16179;SDS011;8196;49.428;10.906;2022-12-07T11:50:07;10.98;;;8.88;;
16179;SDS011;8196;49.428;10.906;2022-12-07T11:52:47;11.82;;;9.52;;
16179;SDS011;8196;49.428;10.906;2022-12-07T11:55:18;11.93;;;9.47;;
16179;SDS011;8196;49.428;10.906;2022-12-07T11:57:50;12.00;;;9.30;;
16179;SDS011;8196;49.428;10.906;2022-12-07T12:00:19;11.00;;;9.10;;
16179;SDS011;8196;49.428;10.906;2022-12-07T12:05:21;13.55;;;10.38;;
16179;SDS011;8196;49.428;10.906;2022-12-07T12:07:52;10.85;;;8.80;;
16179;SDS011;8196;49.428;10.906;2022-12-07T12:10:47;11.35;;;8.85;;
16179;SDS011;8196;49.428;10.906;2022-12-07T12:13:24;11.05;;;9.35;;
16179;SDS011;8196;49.428;10.906;2022-12-07T12:21:31;10.60;;;8.65;;
16179;SDS011;8196;49.428;10.906;2022-12-07T12:24:00;10.35;;;8.63;;
16179;SDS011;8196;49.428;10.906;2022-12-07T12:26:30;12.00;;;9.33;;
16179;SDS011;8196;49.428;10.906;2022-12-07T12:28:59;14.25;;;10.45;;
16179;SDS011;8196;49.428;10.906;2022-12-07T12:33:55;11.82;;;9.48;;
16179;SDS011;8196;49.428;10.906;2022-12-07T12:36:24;11.45;;;9.07;;
16179;SDS011;8196;49.428;10.906;2022-12-07T12:39:07;11.98;;;9.35;;
16179;SDS011;8196;49.428;10.906;2022-12-07T12:59:21;14.55;;;11.25;;
16179;SDS011;8196;49.428;10.906;2022-12-07T13:01:50;14.13;;;10.95;;
16179;SDS011;8196;49.428;10.906;2022-12-07T13:07:09;13.90;;;10.77;;
16179;SDS011;8196;49.428;10.906;2022-12-07T13:09:37;14.43;;;11.25;;
16179;SDS011;8196;49.428;10.906;2022-12-07T13:12:13;14.82;;;11.02;;
16179;SDS011;8196;49.428;10.906;2022-12-07T13:14:41;13.45;;;10.80;;
16179;SDS011;8196;49.428;10.906;2022-12-07T13:17:10;14.77;;;10.68;;
16179;SDS011;8196;49.428;10.906;2022-12-07T13:25:19;13.68;;;10.43;;
16179;SDS011;8196;49.428;10.906;2022-12-07T13:27:43;14.68;;;11.15;;
16179;SDS011;8196;49.428;10.906;2022-12-07T13:30:15;13.88;;;10.68;;
16179;SDS011;8196;49.428;10.906;2022-12-07T13:32:42;13.05;;;10.82;;
16179;SDS011;8196;49.428;10.906;2022-12-07T13:37:57;12.43;;;9.88;;
16179;SDS011;8196;49.428;10.906;2022-12-07T13:40:24;13.00;;;10.77;;
16179;SDS011;8196;49.428;10.906;2022-12-07T13:43:01;12.02;;;9.85;;
16179;SDS011;8196;49.428;10.906;2022-12-07T13:45:29;12.00;;;10.20;;
16179;SDS011;8196;49.428;10.906;2022-12-07T13:50:55;14.23;;;10.82;;
16179;SDS011;8196;49.428;10.906;2022-12-07T13:53:22;14.63;;;11.07;;
16179;SDS011;8196;49.428;10.906;2022-12-07T13:55:50;13.98;;;11.23;;
16179;SDS011;8196;49.428;10.906;2022-12-07T13:58:20;13.90;;;10.75;;
16179;SDS011;8196;49.428;10.906;2022-12-07T14:00:47;15.20;;;11.50;;
16179;SDS011;8196;49.428;10.906;2022-12-07T14:05:41;20.92;;;13.52;;
16179;SDS011;8196;49.428;10.906;2022-12-07T14:10:38;14.07;;;11.15;;
16179;SDS011;8196;49.428;10.906;2022-12-07T14:15:52;13.30;;;10.48;;
16179;SDS011;8196;49.428;10.906;2022-12-07T14:18:28;15.30;;;10.88;;
16179;SDS011;8196;49.428;10.906;2022-12-07T14:21:04;12.30;;;9.52;;
16179;SDS011;8196;49.428;10.906;2022-12-07T14:23:31;12.07;;;9.43;;
16179;SDS011;8196;49.428;10.906;2022-12-07T14:26:08;13.65;;;10.45;;
16179;SDS011;8196;49.428;10.906;2022-12-07T14:28:37;14.27;;;11.02;;
16179;SDS011;8196;49.428;10.906;2022-12-07T14:31:08;13.07;;;10.18;;
16179;SDS011;8196;49.428;10.906;2022-12-07T14:33:45;12.63;;;10.30;;
16179;SDS011;8196;49.428;10.906;2022-12-07T14:36:13;12.00;;;9.70;;
16179;SDS011;8196;49.428;10.906;2022-12-07T14:38:40;12.88;;;9.90;;
16179;SDS011;8196;49.428;10.906;2022-12-07T14:41:12;14.52;;;10.90;;
16179;SDS011;8196;49.428;10.906;2022-12-07T14:44:00;11.67;;;9.20;;
16179;SDS011;8196;49.428;10.906;2022-12-07T14:46:47;12.80;;;9.48;;
16179;SDS011;8196;49.428;10.906;2022-12-07T14:49:15;11.68;;;8.48;;
16179;SDS011;8196;49.428;10.906;2022-12-07T14:51:57;11.27;;;8.82;;
16179;SDS011;8196;49.428;10.906;2022-12-07T14:54:45;11.60;;;9.90;;
16179;SDS011;8196;49.428;10.906;2022-12-07T14:57:11;12.05;;;10.02;;
16179;SDS011;8196;49.428;10.906;2022-12-07T14:59:38;12.38;;;10.68;;
16179;SDS011;8196;49.428;10.906;2022-12-07T15:02:11;12.55;;;10.27;;
16179;SDS011;8196;49.428;10.906;2022-12-07T15:04:38;11.05;;;9.45;;
16179;SDS011;8196;49.428;10.906;2022-12-07T15:07:09;11.95;;;9.40;;
16179;SDS011;8196;49.428;10.906;2022-12-07T15:09:36;12.07;;;9.38;;
16179;SDS011;8196;49.428;10.906;2022-12-07T15:12:04;13.20;;;9.77;;
16179;SDS011;8196;49.428;10.906;2022-12-07T15:14:31;11.40;;;9.70;;
16179;SDS011;8196;49.428;10.906;2022-12-07T15:16:58;13.90;;;9.32;;
16179;SDS011;8196;49.428;10.906;2022-12-07T15:19:36;12.15;;;10.10;;
16179;SDS011;8196;49.428;10.906;2022-12-07T15:22:03;13.98;;;11.35;;
16179;SDS011;8196;49.428;10.906;2022-12-07T15:24:30;12.83;;;10.53;;
16179;SDS011;8196;49.428;10.906;2022-12-07T15:26:57;12.35;;;9.50;;
16179;SDS011;8196;49.428;10.906;2022-12-07T15:29:25;10.23;;;8.57;;
16179;SDS011;8196;49.428;10.906;2022-12-07T15:31:52;11.65;;;9.45;;
16179;SDS011;8196;49.428;10.906;2022-12-07T15:34:23;11.57;;;9.52;;
16179;SDS011;8196;49.428;10.906;2022-12-07T15:36:50;16.65;;;11.50;;
16179;SDS011;8196;49.428;10.906;2022-12-07T15:39:16;12.73;;;9.73;;
16179;SDS011;8196;49.428;10.906;2022-12-07T15:41:43;14.40;;;11.20;;
16179;SDS011;8196;49.428;10.906;2022-12-07T15:44:11;12.48;;;10.73;;
16179;SDS011;8196;49.428;10.906;2022-12-07T15:46:58;13.43;;;10.38;;
16179;SDS011;8196;49.428;10.906;2022-12-07T15:49:26;12.82;;;9.77;;
16179;SDS011;8196;49.428;10.906;2022-12-07T15:51:53;13.18;;;10.30;;
16179;SDS011;8196;49.428;10.906;2022-12-07T15:54:22;11.88;;;9.77;;
16179;SDS011;8196;49.428;10.906;2022-12-07T15:56:50;12.63;;;9.57;;
16179;SDS011;8196;49.428;10.906;2022-12-07T15:59:17;12.35;;;9.88;;
16179;SDS011;8196;49.428;10.906;2022-12-07T16:01:44;12.60;;;9.82;;
16179;SDS011;8196;49.428;10.906;2022-12-07T16:04:12;12.82;;;9.38;;
16179;SDS011;8196;49.428;10.906;2022-12-07T16:06:38;12.85;;;9.55;;
16179;SDS011;8196;49.428;10.906;2022-12-07T16:09:06;13.05;;;10.27;;
16179;SDS011;8196;49.428;10.906;2022-12-07T16:11:33;12.52;;;10.32;;
16179;SDS011;8196;49.428;10.906;2022-12-07T16:14:00;13.55;;;9.68;;
16179;SDS011;8196;49.428;10.906;2022-12-07T16:16:27;13.48;;;10.38;;
16179;SDS011;8196;49.428;10.906;2022-12-07T16:18:55;13.48;;;10.02;;
16179;SDS011;8196;49.428;10.906;2022-12-07T16:21:22;13.30;;;10.43;;
16179;SDS011;8196;49.428;10.906;2022-12-07T16:23:51;17.33;;;13.33;;
16179;SDS011;8196;49.428;10.906;2022-12-07T16:26:19;19.30;;;13.80;;
16179;SDS011;8196;49.428;10.906;2022-12-07T16:28:48;22.57;;;17.23;;
16179;SDS011;8196;49.428;10.906;2022-12-07T16:31:16;27.80;;;20.60;;
16179;SDS011;8196;49.428;10.906;2022-12-07T16:33:44;26.10;;;20.33;;
16179;SDS011;8196;49.428;10.906;2022-12-07T16:36:12;18.83;;;14.70;;
16179;SDS011;8196;49.428;10.906;2022-12-07T16:38:40;17.52;;;13.15;;
16179;SDS011;8196;49.428;10.906;2022-12-07T16:41:13;16.83;;;13.10;;
16179;SDS011;8196;49.428;10.906;2022-12-07T16:43:41;16.05;;;11.90;;
16179;SDS011;8196;49.428;10.906;2022-12-07T16:46:08;29.27;;;23.30;;
16179;SDS011;8196;49.428;10.906;2022-12-07T16:48:36;29.85;;;26.10;;